Skip to Main Content

Video Notice: If you see just a black screen when trying to view Live Traffic cameras, please click inside the window to get video to play. An update to certain browsers is not allowing the video to auto-play when the window opens. 

SEARCH:
Location Air RH Dwp Precip Type Wind Speed Wind Gust Direction Pavement Temperature Date/Time
Hatem Bridge US 40 E/B 48 46 28 None 15 mph 22 mph N 64 - 64 10/18/2018 12:22:00 PM
I-270 at I-370 50 47 31 None Calm 5 mph NW 68 - 76 10/18/2018 12:20:00 PM
I-270 at MD-109 53 48 34 None 5 mph 10 mph SW 71 - 73 10/18/2018 12:25:00 PM
I-495 at American Legion Bridge 53 42 31 None Calm 11 mph NE 72 - 75 10/18/2018 12:20:00 PM
I-68 at Savage Mt 42 55 27 None 5 mph 12 mph W 66 - 68 10/18/2018 12:20:00 PM
I-68 at Sideling Hill 50 54 34 None 5 mph 12 mph NE 72 - 72 10/18/2018 12:20:00 PM
I-68 at US 219 40 62 28 None 9 mph 18 mph W 58 - 64 10/18/2018 12:20:00 PM
I-68 at WV Line 44 49 26 None 8 mph 15 mph SW 59 - 65 10/18/2018 12:25:00 PM
I-695 at I-83 56 40 32 None 5 mph 12 mph NW 66 - 73 10/18/2018 12:20:00 PM
I-695 on FSK Bridge 49 44 29 None 8 mph 12 mph E 60 - 60 10/18/2018 12:24:00 PM
I-70 at Fred-Wash Co. 47 59 33 None Calm 10 mph W 67 - 72 10/18/2018 12:20:00 PM
I-70 at I-695 53 43 31 None 4 mph 13 mph W 71 - 76 10/18/2018 12:20:00 PM
I-70 at I-81 51 46 31 None 6 mph 12 mph W 68 - 68 10/18/2018 12:20:00 PM
I-70 at MD-27 52 47 32 None Calm 6 mph S 69 - 73 10/18/2018 12:20:00 PM
I-70 at MD-32 51 44 30 None 5 mph 13 mph NW 72 - 79 10/18/2018 12:20:00 PM
I-83 at MD-137 51 47 31 None Calm 10 mph W 69 - 74 10/18/2018 12:25:00 PM
I-95 at I-695 NE 51 43 29 None 7 mph 10 mph NW 69 - 77 10/18/2018 12:24:00 PM
I-95 at Patuxent River 53 45 32 None 5 mph 10 mph S 69 - 73 10/18/2018 12:20:00 PM
I-95 at Tydings Bridge 53 44 32 None Calm 9 mph NE 65 - 76 10/18/2018 12:20:00 PM
I-95/495 at I-295 57 36 31 None 7 mph 16 mph W 58 - 73 10/18/2018 12:20:00 PM
I-97 at MD-100 56 41 33 None 5 mph 12 mph NE 71 - 76 10/18/2018 12:20:00 PM
I-97 at MD-32 54 43 33 None Calm 10 mph NW 70 - 77 10/18/2018 12:20:00 PM
MD 136 @ MD 646 49 45 29 No Data Available 4 mph 16 mph W 78 - 78 10/18/2018 12:20:00 PM
MD 20 at MD 21 52 44 31 None 8 mph 13 mph W 85 - 85 10/18/2018 12:20:00 PM
MD 23 at Meadowtree Road 48 44 28 No Data Available Calm 7 mph N 79 - 79 10/18/2018 12:20:00 PM
MD 231 at Patuxent River 54 43 32 None 9 mph 17 mph N 75 - 78 10/18/2018 12:20:00 PM
MD 24 at Jarrettsville Road 49 42 27 No Data Available 6 mph 12 mph NW 80 - 80 10/18/2018 12:20:00 PM
MD 260 at Cox Rd 56 46 35 None Calm 8 mph N 84 - 84 10/18/2018 12:20:00 PM
MD-135 at Salt Dome 41 63 30 None 4 mph 13 mph N 66 - 66 10/18/2018 12:20:00 PM
MD-140 at MD-97 48 48 29 None 7 mph 14 mph W 69 - 74 10/18/2018 12:20:00 PM
MD-200 EB at Bonifant Rd - - - No Data Available - - No Data Available -
MD-200 WB at Muncaster Mill Rd 52 46 32 None 7 mph 19 mph W 73 - 73 10/18/2018 12:22:00 PM
MD-213 at Sassafras River 51 51 33 None 7 mph 13 mph NW 76 - 76 10/18/2018 12:20:00 PM
MD-24 at Rock St Park 50 47 31 None Calm 10 mph NE 66 - 66 10/18/2018 12:20:00 PM
MD-30 at PA Line 47 57 32 None 8 mph 15 mph W 69 - 69 10/18/2018 12:20:00 PM
MD-33 at Knapps Narrows Drawbridge 53 45 32 None 12 mph 20 mph NW 84 - 84 10/18/2018 12:20:00 PM
MD-344 at MD-224 52 44 31 None 5 mph 10 mph N 78 - 78 10/18/2018 12:20:00 PM
MD-4 at Patuxent River 55 44 33 None 27 mph 31 mph NW 69 - 76 10/18/2018 12:24:00 PM
MD-404 at Choptank River 53 44 32 None 7 mph 14 mph NW 77 - 79 10/18/2018 12:20:00 PM
MD-43 at MD-150 53 41 31 None 7 mph 15 mph N 75 - 82 10/18/2018 12:20:00 PM
MD-51 at Oldtown Salt Dome 50 43 29 None 6 mph 14 mph W 79 - 79 10/18/2018 12:20:00 PM
MD-64 at MD-418 48 47 29 None 8 mph 14 mph NW 74 - 77 10/18/2018 12:20:00 PM
US 301 at MD 305 51 46 31 None 8 mph 14 mph NW 77 - 79 10/18/2018 12:20:00 PM
US-1 at Baltimore / Harford Co. Line 52 44 31 None 4 mph 18 mph E 64 - 71 10/18/2018 12:20:00 PM
US-1 at Conowingo Dam 55 44 34 None Calm 6 mph NW 79 - 79 10/18/2018 12:25:00 PM
US-13 at US-113 54 44 32 None 8 mph 16 mph NW 85 - 86 10/18/2018 12:20:00 PM
US-13 at US-50 53 42 31 None 7 mph 17 mph N 75 - 75 10/18/2018 12:20:00 PM
US-15 at MD-140 52 41 29 None 4 mph 9 mph SW 69 - 76 10/18/2018 12:20:00 PM
US-301 at MD-5 54 45 33 None 5 mph 14 mph E 73 - 80 10/18/2018 12:20:00 PM
US-301 at Potomac 56 56 40 None 14 mph 20 mph NW 72 - 72 10/18/2018 12:24:00 PM
US-340 at MD-180 49 48 31 None 13 mph 20 mph W 71 - 77 10/18/2018 12:20:00 PM
US-50 at Choptank 52 48 33 None 11 mph 17 mph W 73 - 76 10/18/2018 12:20:00 PM
US-50 at I-95 54 42 32 None 6 mph 13 mph W 69 - 71 10/18/2018 12:20:00 PM
US-50 at MD-2 54 43 32 None 5 mph 11 mph W 55 - 72 10/18/2018 12:20:00 PM
US-50 at MD-331 55 45 34 None 9 mph 16 mph N 74 - 79 10/18/2018 12:20:00 PM
US-50 at OC Drawbridge 54 40 31 None 9 mph 21 mph NW 82 - 82 10/18/2018 12:20:00 PM
US-50 at Table Rock Rd 39 68 30 None 4 mph 9 mph SW 71 - 71 10/18/2018 12:20:00 PM
US-50 Kent Narrow Bridge 54 45 33 None 5 mph 14 mph NW 71 - 75 10/18/2018 12:20:00 PM
WPL Pier 31 49 43 28 None 9 mph 12 mph NW 78 - 78 10/18/2018 12:22:00 PM
Location Air RH Dwp Precip Type Wind Speed Wind Gust Direction Pavement Temperature Date/Time